Time;durP1;ratioP1;P1;durP2;ratioP2;P2;SDS_P1;SDS_P2;PMS_P1;PMS_P2;Temp;Humidity;BMP_temperature;BMP_pressure;BME280_temperature;BME280_humidity;BME280_pressure;Samples;Min_cycle;Max_cycle;Signal;HPM_P1;HPM_P2
2023/01/09 00:00:44;;;;;;;;;4.00;2.00;;;;;8.15;100.00;99393.84;5033477;28;45431;-74
2023/01/09 00:03:10;;;;;;;;;0.00;0.00;;;;;8.18;100.00;99396.97;5041263;28;45836;-75
2023/01/09 00:05:35;;;;;;;;;0.00;0.00;;;;;8.12;100.00;99386.94;5028836;28;45781;-75
2023/01/09 00:08:01;;;;;;;;;1.00;0.00;;;;;8.22;100.00;99394.59;5032700;28;46031;-73
2023/01/09 00:10:26;;;;;;;;;3.00;0.00;;;;;8.13;100.00;99383.16;5032448;28;45519;-73
2023/01/09 00:12:52;;;;;;;;;1.00;0.00;;;;;8.21;100.00;99403.88;5032603;28;45472;-74
2023/01/09 00:15:17;;;;;;;;;2.00;0.67;;;;;8.24;100.00;99398.78;5033247;28;45400;-74
2023/01/09 00:17:43;;;;;;;;;0.00;0.00;;;;;8.23;100.00;99413.50;5032703;28;45510;-73
2023/01/09 00:20:09;;;;;;;;;0.33;0.33;;;;;8.22;100.00;99409.09;5033265;28;45388;-75
2023/01/09 00:22:36;;;;;;;;;2.00;0.67;;;;;8.18;100.00;99399.69;5032012;28;46318;-73
2023/01/09 00:25:02;;;;;;;;;3.67;2.00;;;;;8.19;100.00;99398.63;5032105;28;45787;-74
2023/01/09 00:27:35;;;;;;;;;2.67;1.67;;;;;8.17;100.00;99408.94;5064920;28;45687;-74
2023/01/09 00:30:02;;;;;;;;;0.00;0.00;;;;;8.21;100.00;99396.50;5031936;28;45501;-73
2023/01/09 00:32:28;;;;;;;;;2.67;1.33;;;;;8.25;100.00;99405.09;5032831;28;46573;-74
2023/01/09 00:34:54;;;;;;;;;2.67;2.67;;;;;8.25;100.00;99388.72;5045386;28;45809;-75
2023/01/09 00:37:20;;;;;;;;;0.00;0.00;;;;;8.17;100.00;99367.97;5031487;28;45444;-74
2023/01/09 00:39:45;;;;;;;;;2.00;1.00;;;;;8.32;100.00;99403.09;5032300;28;45644;-75
2023/01/09 00:42:16;;;;;;;;;1.00;1.00;;;;;8.38;100.00;99387.69;5064732;27;46741;-73
2023/01/09 00:44:52;;;;;;;;;4.67;1.00;;;;;8.39;100.00;99387.47;5028391;28;45955;-75
2023/01/09 00:47:25;;;;;;;;;1.00;1.00;;;;;8.45;100.00;99396.69;5026288;28;45888;-74
2023/01/09 00:49:53;;;;;;;;;4.00;1.00;;;;;8.51;100.00;99405.88;5031677;28;45448;-75
2023/01/09 00:52:20;;;;;;;;;1.00;1.00;;;;;8.49;100.00;99408.84;5031587;28;45658;-74
2023/01/09 00:54:46;;;;;;;;;3.67;1.67;;;;;8.47;100.00;99411.81;5031579;28;45713;-76
2023/01/09 00:57:13;;;;;;;;;0.67;0.67;;;;;8.49;100.00;99414.31;5030521;28;45921;-75
2023/01/09 00:59:40;;;;;;;;;1.00;0.67;;;;;8.49;100.00;99419.78;5031576;28;45911;-73
2023/01/09 01:02:05;;;;;;;;;1.00;0.00;;;;;8.48;100.00;99416.19;5031211;28;45683;-73
2023/01/09 01:09:59;;;;;;;;;2.67;1.00;;;;;8.66;100.00;99414.50;5031963;28;45476;-73
2023/01/09 01:12:25;;;;;;;;;2.00;0.00;;;;;8.74;100.00;99432.50;5031789;28;46127;-74
2023/01/09 01:14:51;;;;;;;;;1.67;1.00;;;;;8.74;100.00;99421.56;5031368;28;45548;-74
2023/01/09 01:17:16;;;;;;;;;1.00;1.00;;;;;8.75;100.00;99420.50;5031652;28;45929;-74
2023/01/09 01:19:42;;;;;;;;;2.00;0.00;;;;;8.73;100.00;99412.53;5031146;28;45708;-74
2023/01/09 01:22:07;;;;;;;;;2.67;2.00;;;;;8.77;100.00;99412.91;5030397;28;45664;-74
2023/01/09 01:24:33;;;;;;;;;3.00;1.33;;;;;8.82;100.00;99429.47;5031799;28;45503;-73
2023/01/09 01:26:58;;;;;;;;;2.00;2.00;;;;;8.86;100.00;99419.72;5031032;28;45460;-75
2023/01/09 01:29:23;;;;;;;;;1.33;0.67;;;;;8.91;100.00;99416.31;5031092;28;46006;-73
2023/01/09 01:31:50;;;;;;;;;2.00;1.00;;;;;8.94;100.00;99433.09;5032816;28;47019;-73
2023/01/09 01:34:16;;;;;;;;;0.00;0.00;;;;;8.94;100.00;99433.09;5031410;28;45658;-73
2023/01/09 01:36:41;;;;;;;;;3.00;1.67;;;;;8.91;100.00;99439.00;5031532;28;45798;-74
2023/01/09 01:39:07;;;;;;;;;2.67;0.67;;;;;8.91;100.00;99433.53;5031130;28;45813;-75
2023/01/09 01:41:32;;;;;;;;;2.00;2.00;;;;;8.89;100.00;99438.41;5029535;28;46105;-74
2023/01/09 01:44:06;;;;;;;;;4.00;1.00;;;;;8.88;100.00;99434.00;5030602;28;45471;-75
2023/01/09 01:46:33;;;;;;;;;3.33;2.33;;;;;8.92;100.00;99446.16;5049048;28;45764;-76
2023/01/09 01:49:09;;;;;;;;;2.67;1.00;;;;;8.95;100.00;99445.69;5030537;28;46601;-74
2023/01/09 01:51:40;;;;;;;;;2.00;1.00;;;;;9.01;100.00;99454.84;5023933;28;46148;-76
2023/01/09 01:54:11;;;;;;;;;2.33;1.00;;;;;9.02;100.00;99459.28;5029871;28;45478;-73
2023/01/09 01:56:41;;;;;;;;;1.00;1.00;;;;;9.00;100.00;99443.09;5030720;28;45357;-74
2023/01/09 01:59:12;;;;;;;;;2.00;2.00;;;;;8.99;100.00;99448.78;5043896;28;46236;-74
2023/01/09 02:01:41;;;;;;;;;0.67;0.67;;;;;8.90;100.00;99431.88;5027218;28;45706;-73
2023/01/09 02:04:08;;;;;;;;;3.33;2.00;;;;;9.10;100.00;99458.97;5031952;28;45725;-74
2023/01/09 02:06:34;;;;;;;;;6.67;1.00;;;;;9.10;100.00;99438.97;5031883;28;45782;-74
2023/01/09 02:09:03;;;;;;;;;3.00;0.33;;;;;9.19;100.00;99446.63;5030490;28;46086;-75
2023/01/09 02:11:28;;;;;;;;;1.00;1.00;;;;;9.26;100.00;99446.53;5031369;28;47136;-72
2023/01/09 02:13:54;;;;;;;;;4.67;2.00;;;;;9.26;100.00;99451.16;5031915;28;45745;-73
2023/01/09 02:16:37;;;;;;;;;1.67;1.67;;;;;9.22;100.00;99449.97;5032372;28;45590;-75
2023/01/09 02:19:21;;;;;;;;;5.67;2.00;;;;;9.16;100.00;99457.19;5032518;28;45878;-73
2023/01/09 02:22:25;;;;;;;;;2.67;2.00;;;;;9.11;100.00;99465.25;5031287;28;45620;-74
2023/01/09 02:24:56;;;;;;;;;1.33;0.33;;;;;9.06;100.00;99463.22;5032008;28;45685;-74
2023/01/09 02:27:47;;;;;;;;;4.33;1.00;;;;;9.06;100.00;99473.34;5030778;28;45381;-72
2023/01/09 02:30:30;;;;;;;;;3.00;1.00;;;;;9.06;100.00;99465.13;5031483;28;45377;-73
2023/01/09 02:33:06;;;;;;;;;4.33;1.67;;;;;9.08;100.00;99469.28;5031730;28;45893;-77
2023/01/09 02:36:03;;;;;;;;;3.00;2.00;;;;;9.06;100.00;99479.63;5031609;28;45351;-76
2023/01/09 02:39:02;;;;;;;;;4.33;1.33;;;;;9.06;100.00;99484.28;5032122;28;46592;-73
2023/01/09 02:41:50;;;;;;;;;3.00;0.67;;;;;8.98;100.00;99478.06;5031698;28;45497;-74
2023/01/09 02:44:20;;;;;;;;;3.33;1.00;;;;;9.08;100.00;99495.81;5021863;28;45309;-75
2023/01/09 02:46:45;;;;;;;;;1.67;0.67;;;;;9.11;100.00;99481.66;5031460;28;45494;-74
2023/01/09 02:49:14;;;;;;;;;4.00;1.00;;;;;9.08;100.00;99468.47;5031877;28;45622;-74
2023/01/09 02:51:50;;;;;;;;;2.67;2.67;;;;;9.15;100.00;99474.69;5033344;28;47056;-75
2023/01/09 02:54:22;;;;;;;;;2.00;2.00;;;;;9.16;100.00;99479.06;5035307;28;46869;-74
2023/01/09 02:57:15;;;;;;;;;2.00;2.00;;;;;9.17;100.00;99484.31;5034958;28;45721;-74
2023/01/09 02:59:51;;;;;;;;;3.33;0.33;;;;;9.08;100.00;99472.00;5032607;28;45731;-74
2023/01/09 03:02:46;;;;;;;;;4.00;0.00;;;;;9.24;100.00;99480.66;5025989;28;45687;-74
2023/01/09 03:05:36;;;;;;;;;3.67;1.67;;;;;9.23;100.00;99487.19;5035095;28;46432;-74
2023/01/09 03:08:10;;;;;;;;;0.00;0.00;;;;;9.18;100.00;99483.25;5035241;28;45927;-74
2023/01/09 03:10:47;;;;;;;;;2.33;0.67;;;;;9.14;100.00;99481.22;5035472;28;45591;-74
2023/01/09 03:13:18;;;;;;;;;1.00;0.67;;;;;9.09;100.00;99479.16;5035172;28;45467;-72
2023/01/09 03:15:49;;;;;;;;;2.67;2.00;;;;;9.07;100.00;99485.91;5034425;28;45529;-73
2023/01/09 03:18:19;;;;;;;;;5.67;2.00;;;;;9.02;100.00;99500.28;5035039;28;45477;-76
2023/01/09 03:20:46;;;;;;;;;3.33;1.67;;;;;9.01;100.00;99509.53;5034482;28;45700;-72
2023/01/09 03:23:11;;;;;;;;;2.00;0.00;;;;;9.07;100.00;99499.59;5033565;28;46685;-73
2023/01/09 03:25:37;;;;;;;;;2.00;2.00;;;;;9.15;100.00;99491.91;5033488;28;46250;-72
2023/01/09 03:28:05;;;;;;;;;2.00;1.00;;;;;9.23;100.00;99490.75;5034645;28;45668;-73
2023/01/09 03:30:33;;;;;;;;;2.67;2.00;;;;;9.27;100.00;99494.72;5035152;28;45793;-72
2023/01/09 03:32:59;;;;;;;;;7.33;2.33;;;;;9.26;100.00;99493.03;5033899;28;47171;-73
2023/01/09 03:35:25;;;;;;;;;4.67;3.33;;;;;9.32;100.00;99502.22;5033862;28;45384;-73
2023/01/09 03:37:51;;;;;;;;;3.00;1.33;;;;;9.33;100.00;99510.19;5035428;28;45416;-74
2023/01/09 03:40:17;;;;;;;;;2.67;1.00;;;;;9.39;100.00;99510.34;5035159;28;45699;-72
2023/01/09 03:42:43;;;;;;;;;2.00;1.00;;;;;9.28;100.00;99485.44;5034915;28;45627;-73
2023/01/09 03:45:09;;;;;;;;;2.00;0.00;;;;;9.44;100.00;99508.56;5034615;28;45874;-73
2023/01/09 03:47:34;;;;;;;;;2.33;0.00;;;;;9.44;100.00;99499.53;5035398;28;45722;-74
2023/01/09 03:50:00;;;;;;;;;2.67;1.00;;;;;9.46;100.00;99505.59;5035023;28;45310;-73
2023/01/09 03:52:25;;;;;;;;;1.00;1.00;;;;;9.46;100.00;99497.38;5034811;28;45776;-73
2023/01/09 03:54:50;;;;;;;;;1.00;1.00;;;;;9.45;100.00;99517.63;5034260;28;45469;-71
2023/01/09 03:57:16;;;;;;;;;4.00;1.00;;;;;9.34;100.00;99508.28;5066883;28;45392;-73
2023/01/09 03:59:42;;;;;;;;;3.67;2.33;;;;;9.30;100.00;99518.03;5033635;28;45761;-73
2023/01/09 04:02:07;;;;;;;;;3.00;2.00;;;;;9.23;100.00;99512.63;5034497;28;45392;-73
2023/01/09 04:04:33;;;;;;;;;1.00;1.00;;;;;9.20;100.00;99524.03;5033791;28;46121;-73
2023/01/09 04:06:58;;;;;;;;;2.00;1.00;;;;;9.22;100.00;99530.13;5034271;28;45753;-73
2023/01/09 04:09:23;;;;;;;;;6.33;1.67;;;;;9.08;100.00;99515.78;5049316;28;45783;-72
2023/01/09 04:11:49;;;;;;;;;3.00;0.00;;;;;9.24;100.00;99536.19;5032988;28;46226;-74
2023/01/09 04:14:15;;;;;;;;;2.33;1.00;;;;;9.30;100.00;99535.28;5034195;28;45757;-71
2023/01/09 04:16:41;;;;;;;;;2.00;1.00;;;;;9.35;100.00;99535.41;5034384;28;45371;-72
2023/01/09 04:19:06;;;;;;;;;1.00;1.00;;;;;9.41;100.00;99544.59;5033071;28;45544;-72
2023/01/09 04:21:31;;;;;;;;;2.00;2.00;;;;;9.47;100.00;99540.13;5034500;28;45532;-73
2023/01/09 04:23:57;;;;;;;;;3.00;0.67;;;;;9.54;100.00;99544.44;5034129;28;45304;-73
2023/01/09 04:26:22;;;;;;;;;3.67;1.00;;;;;9.57;100.00;99529.44;5026405;28;45682;-73
2023/01/09 04:28:48;;;;;;;;;2.00;0.00;;;;;9.58;100.00;99531.13;5030416;28;45806;-74
2023/01/09 04:31:14;;;;;;;;;0.67;0.67;;;;;9.53;100.00;99518.09;5033269;28;46244;-74
2023/01/09 04:33:39;;;;;;;;;2.00;1.00;;;;;9.46;100.00;99527.50;5029812;28;46421;-72
2023/01/09 04:36:05;;;;;;;;;1.00;0.00;;;;;9.43;100.00;99533.44;5013603;28;45762;-73
2023/01/09 04:38:31;;;;;;;;;3.00;0.33;;;;;9.42;100.00;99540.81;5020231;28;45718;-72
2023/01/09 04:40:57;;;;;;;;;0.67;0.67;;;;;9.42;100.00;99535.34;5023393;28;45886;-73
2023/01/09 04:43:22;;;;;;;;;1.67;0.00;;;;;9.45;100.00;99534.88;5032491;28;46026;-73
2023/01/09 04:45:48;;;;;;;;;0.00;0.00;;;;;9.48;100.00;99541.78;5024427;28;45856;-75
2023/01/09 04:48:13;;;;;;;;;1.00;0.00;;;;;9.50;100.00;99545.13;5020104;28;45799;-73
2023/01/09 04:50:38;;;;;;;;;2.33;2.33;;;;;9.47;100.00;99540.94;5022756;28;45832;-74
2023/01/09 04:53:05;;;;;;;;;1.33;0.00;;;;;9.50;100.00;99550.59;5020441;28;45936;-73
2023/01/09 04:55:31;;;;;;;;;2.00;1.00;;;;;9.49;100.00;99537.97;5024619;28;45288;-72
2023/01/09 04:57:56;;;;;;;;;0.33;0.33;;;;;9.50;100.00;99556.06;5032423;28;45338;-73
2023/01/09 05:00:22;;;;;;;;;2.00;1.00;;;;;9.45;100.00;99528.56;5033859;28;45586;-74
2023/01/09 05:02:47;;;;;;;;;1.00;0.00;;;;;9.62;100.00;99559.69;5047063;28;47852;-72
2023/01/09 05:05:13;;;;;;;;;3.00;1.33;;;;;9.63;100.00;99550.41;5025508;28;45329;-73
2023/01/09 05:07:38;;;;;;;;;1.33;1.00;;;;;9.64;100.00;99541.16;5029532;28;45677;-74
2023/01/09 05:10:05;;;;;;;;;2.00;0.00;;;;;9.72;100.00;99567.34;5033611;28;45654;-73
2023/01/09 05:12:31;;;;;;;;;2.00;0.00;;;;;9.77;100.00;99570.22;5032990;28;45483;-74
2023/01/09 05:14:56;;;;;;;;;1.00;1.00;;;;;9.78;100.00;99569.16;5032492;28;45844;-73
2023/01/09 05:17:22;;;;;;;;;1.33;0.67;;;;;9.76;100.00;99575.91;5033065;28;45680;-76
2023/01/09 05:19:48;;;;;;;;;2.00;1.33;;;;;9.78;100.00;99577.38;5032658;28;45424;-75
2023/01/09 05:22:13;;;;;;;;;1.00;0.00;;;;;9.80;100.00;99577.13;5032880;28;46287;-74
2023/01/09 05:24:39;;;;;;;;;7.33;5.67;;;;;9.94;100.00;99599.69;5033566;28;45844;-73
2023/01/09 05:27:04;;;;;;;;;5.67;4.00;;;;;9.96;100.00;99600.31;5032692;28;45331;-75
2023/01/09 05:29:30;;;;;;;;;1.00;1.00;;;;;9.91;100.00;99595.53;5032985;28;45873;-74
2023/01/09 05:31:56;;;;;;;;;7.00;4.00;;;;;9.98;100.00;99606.38;5033007;28;46083;-75
2023/01/09 05:34:21;;;;;;;;;8.67;2.67;;;;;9.98;100.00;99614.59;5025097;28;45333;-75
2023/01/09 05:36:47;;;;;;;;;14.33;11.67;;;;;10.01;100.00;99617.69;5027279;28;45705;-74
2023/01/09 05:39:13;;;;;;;;;1.67;1.67;;;;;10.00;100.00;99604.22;5032086;28;45545;-74
2023/01/09 05:41:38;;;;;;;;;2.00;1.00;;;;;10.00;100.00;99613.28;5029028;28;45645;-75
2023/01/09 05:44:04;;;;;;;;;3.00;1.00;;;;;10.01;100.00;99616.84;5030930;28;45612;-77
2023/01/09 05:46:30;;;;;;;;;0.67;0.67;;;;;10.00;100.00;99616.03;5031708;28;45347;-74
2023/01/09 05:48:56;;;;;;;;;2.67;1.00;;;;;9.99;100.00;99619.84;5027936;28;45313;-73
2023/01/09 05:51:21;;;;;;;;;0.67;0.67;;;;;9.94;100.00;99614.22;5029968;28;45361;-68
2023/01/09 05:53:47;;;;;;;;;1.67;0.00;;;;;9.95;100.00;99634.22;5029270;28;45506;-76
2023/01/09 05:56:13;;;;;;;;;0.33;0.33;;;;;9.95;100.00;99629.56;5034624;28;45824;-75
2023/01/09 05:58:38;;;;;;;;;1.00;1.00;;;;;9.93;100.00;99625.41;5032088;28;45436;-75
2023/01/09 06:01:04;;;;;;;;;1.33;0.33;;;;;9.94;100.00;99638.88;5031413;28;46086;-76
2023/01/09 06:03:29;;;;;;;;;0.00;0.00;;;;;9.93;100.00;99631.72;5032601;28;45438;-76
2023/01/09 06:05:55;;;;;;;;;6.00;1.00;;;;;9.80;100.00;99613.56;5032748;28;45384;-77
2023/01/09 06:08:20;;;;;;;;;0.33;0.33;;;;;9.88;100.00;99637.06;5033329;28;45412;-77
2023/01/09 06:10:46;;;;;;;;;1.00;1.00;;;;;9.83;100.00;99635.00;5023354;28;45641;-78
2023/01/09 06:13:12;;;;;;;;;2.33;1.00;;;;;9.77;100.00;99641.41;5028646;28;45458;-73
2023/01/09 06:15:38;;;;;;;;;1.00;0.00;;;;;9.77;100.00;99637.84;5028257;28;45512;-71
2023/01/09 06:18:03;;;;;;;;;0.00;0.00;;;;;9.87;100.00;99641.69;5029272;28;45810;-70
2023/01/09 06:20:30;;;;;;;;;3.00;0.00;;;;;9.89;100.00;99645.06;5032689;28;45597;-77
2023/01/09 06:22:55;;;;;;;;;0.00;0.00;;;;;9.92;100.00;99651.94;5031215;28;45349;-73
2023/01/09 06:25:20;;;;;;;;;2.67;2.00;;;;;9.94;100.00;99649.84;5032155;28;45657;-71
2023/01/09 06:27:46;;;;;;;;;1.00;0.00;;;;;9.87;100.00;99660.03;5030732;28;45485;-71
2023/01/09 06:30:12;;;;;;;;;2.00;0.00;;;;;9.85;100.00;99665.75;5027748;28;45944;-74
2023/01/09 06:32:37;;;;;;;;;2.00;2.00;;;;;9.97;100.00;99679.50;5035227;28;45495;-76
2023/01/09 06:35:03;;;;;;;;;1.67;1.00;;;;;9.98;100.00;99672.94;5033965;28;45745;-75
2023/01/09 06:37:28;;;;;;;;;0.00;0.00;;;;;9.95;100.00;99667.91;5032100;28;45727;-74
2023/01/09 06:39:54;;;;;;;;;1.00;0.00;;;;;9.98;100.00;99678.41;5034302;28;46116;-75
2023/01/09 06:42:19;;;;;;;;;0.67;0.67;;;;;10.07;100.00;99673.44;5034111;28;45302;-74
2023/01/09 06:44:45;;;;;;;;;2.00;0.00;;;;;10.06;100.00;99674.53;5031030;28;45354;-75
2023/01/09 06:47:10;;;;;;;;;1.00;0.00;;;;;9.98;100.00;99672.09;5035084;28;45369;-75
2023/01/09 06:49:36;;;;;;;;;0.33;0.00;;;;;9.92;100.00;99684.81;5031869;28;46198;-74
2023/01/09 06:52:06;;;;;;;;;1.00;1.00;;;;;9.81;100.00;99677.41;5028950;28;45629;-72
2023/01/09 06:54:32;;;;;;;;;0.67;0.00;;;;;9.79;100.00;99691.31;5033684;28;45760;-74
2023/01/09 06:56:57;;;;;;;;;3.00;0.00;;;;;9.74;100.00;99693.88;5024777;28;45851;-74
2023/01/09 06:59:23;;;;;;;;;1.00;1.00;;;;;9.76;100.00;99701.88;5035271;27;45695;-74
2023/01/09 07:01:48;;;;;;;;;0.33;0.33;;;;;9.74;100.00;99704.00;5030675;28;45844;-75
2023/01/09 07:04:14;;;;;;;;;0.00;0.00;;;;;9.73;100.00;99705.94;5031670;28;45548;-76
2023/01/09 07:06:39;;;;;;;;;2.67;0.00;;;;;9.75;100.00;99709.25;5032060;28;45614;-73
2023/01/09 07:09:05;;;;;;;;;2.67;1.00;;;;;9.73;100.00;99725.09;5032142;28;45475;-76
2023/01/09 07:11:31;;;;;;;;;3.67;0.67;;;;;9.68;100.00;99724.91;5025934;28;45326;-75
2023/01/09 07:13:56;;;;;;;;;1.00;0.00;;;;;9.64;100.00;99720.97;5025846;28;45361;-75
2023/01/09 07:16:22;;;;;;;;;1.00;0.00;;;;;9.62;100.00;99723.09;5028633;28;45605;-73
2023/01/09 07:18:47;;;;;;;;;0.67;0.00;;;;;9.62;100.00;99715.72;5038798;28;45390;-75
2023/01/09 07:21:13;;;;;;;;;2.00;0.00;;;;;9.60;100.00;99720.59;5032685;28;45647;-75
2023/01/09 07:23:38;;;;;;;;;3.33;1.00;;;;;9.58;100.00;99717.25;5063359;27;45474;-74
2023/01/09 07:26:04;;;;;;;;;0.67;0.67;;;;;9.62;100.00;99717.63;5036680;28;45414;-74
2023/01/09 07:28:29;;;;;;;;;1.00;1.00;;;;;9.46;100.00;99702.63;5033435;28;45597;-73
2023/01/09 07:30:54;;;;;;;;;0.00;0.00;;;;;9.57;100.00;99721.06;5029148;28;45534;-74
2023/01/09 07:33:20;;;;;;;;;0.00;0.00;;;;;9.50;100.00;99720.28;5033815;28;45793;-73
2023/01/09 07:35:45;;;;;;;;;1.00;1.00;;;;;9.53;100.00;99728.84;5023819;28;45821;-76
2023/01/09 07:38:11;;;;;;;;;1.00;0.00;;;;;9.56;100.00;99734.97;5024211;28;45667;-76
2023/01/09 07:40:37;;;;;;;;;0.33;0.00;;;;;9.56;100.00;99751.38;5069351;27;46341;-75
2023/01/09 07:43:02;;;;;;;;;2.00;0.33;;;;;9.56;100.00;99746.75;5077785;27;45795;-78
2023/01/09 07:45:27;;;;;;;;;1.00;0.00;;;;;9.51;100.00;99746.59;5040873;28;45500;-77
2023/01/09 07:47:53;;;;;;;;;0.67;0.00;;;;;9.60;100.00;99758.91;5030032;28;45775;-76
2023/01/09 07:50:19;;;;;;;;;0.33;0.33;;;;;9.56;100.00;99757.69;5061018;27;45458;-74
2023/01/09 07:52:45;;;;;;;;;0.00;0.00;;;;;9.55;100.00;99758.78;5029722;28;45528;-74
2023/01/09 07:55:10;;;;;;;;;2.00;0.33;;;;;9.50;100.00;99755.84;5025567;28;45893;-75
2023/01/09 07:57:36;;;;;;;;;1.00;0.00;;;;;9.60;100.00;99774.50;5034778;28;45745;-75
2023/01/09 08:00:05;;;;;;;;;1.33;0.00;;;;;9.60;100.00;99772.59;5021721;28;45365;-74
2023/01/09 08:02:30;;;;;;;;;1.00;1.00;;;;;9.64;100.00;99775.72;5024722;28;45568;-76
2023/01/09 08:04:56;;;;;;;;;1.00;1.00;;;;;9.65;100.00;99791.91;5032096;28;46007;-72
2023/01/09 08:07:21;;;;;;;;;1.00;1.00;;;;;9.62;100.00;99789.63;5026148;28;46528;-73
2023/01/09 08:09:46;;;;;;;;;1.00;0.00;;;;;9.60;100.00;99786.28;5028214;28;45819;-73
2023/01/09 08:12:12;;;;;;;;;1.00;0.00;;;;;9.61;100.00;99798.94;5034985;28;45679;-73
2023/01/09 08:14:38;;;;;;;;;0.33;0.33;;;;;9.58;100.00;99772.00;5032117;28;45501;-72
2023/01/09 08:17:04;;;;;;;;;1.67;0.00;;;;;9.63;100.00;99783.09;5029139;28;45499;-71
2023/01/09 08:19:29;;;;;;;;;0.00;0.00;;;;;9.64;100.00;99795.72;5037735;28;45689;-73
2023/01/09 08:21:55;;;;;;;;;0.00;0.00;;;;;9.61;100.00;99811.75;5033993;28;45721;-76
2023/01/09 08:24:20;;;;;;;;;0.00;0.00;;;;;9.56;100.00;99811.59;5019722;28;45648;-77
2023/01/09 08:26:46;;;;;;;;;4.67;3.33;;;;;9.58;100.00;99824.00;5055767;27;47323;-76
2023/01/09 08:29:11;;;;;;;;;1.00;0.00;;;;;9.57;100.00;99827.81;5033400;28;45600;-77
2023/01/09 08:31:37;;;;;;;;;0.00;0.00;;;;;9.54;100.00;99825.53;5038358;28;45361;-77
2023/01/09 08:34:02;;;;;;;;;0.00;0.00;;;;;9.53;100.00;99823.84;5021387;28;45763;-77
2023/01/09 08:36:27;;;;;;;;;2.67;0.00;;;;;9.51;100.00;99836.91;5029873;28;46295;-77
2023/01/09 08:38:53;;;;;;;;;0.00;0.00;;;;;9.52;100.00;99841.31;5063909;27;45754;-76
2023/01/09 08:47:04;;;;;;;;;0.00;0.00;;;;;9.53;100.00;99856.69;5028234;28;45687;-77
2023/01/09 08:49:34;;;;;;;;;3.00;0.00;;;;;9.51;100.00;99850.59;5032333;28;45661;-78
2023/01/09 08:52:00;;;;;;;;;1.00;0.00;;;;;9.46;100.00;99842.22;5033940;28;45671;-73
2023/01/09 08:54:26;;;;;;;;;0.67;0.00;;;;;9.51;100.00;99858.81;5028855;28;45664;-73
2023/01/09 08:56:51;;;;;;;;;0.00;0.00;;;;;9.54;100.00;99861.09;5030562;28;45496;-73
2023/01/09 08:59:17;;;;;;;;;0.00;0.00;;;;;9.56;100.00;99867.19;5027063;28;45509;-72
2023/01/09 09:01:42;;;;;;;;;1.33;1.00;;;;;9.48;100.00;99853.78;5029086;28;45479;-73
2023/01/09 09:04:08;;;;;;;;;2.67;0.33;;;;;9.56;100.00;99869.91;5027992;28;45571;-73
2023/01/09 09:06:34;;;;;;;;;1.33;0.00;;;;;9.70;100.00;99851.47;5031962;28;45969;-73
2023/01/09 09:09:02;;;;;;;;;0.00;0.00;;;;;10.08;100.00;99884.16;5021627;28;45693;-72
2023/01/09 09:11:37;;;;;;;;;0.00;0.00;;;;;10.12;100.00;99891.91;5029212;28;45524;-75
2023/01/09 09:15:11;;;;;;;;;0.00;0.00;;;;;10.07;100.00;99909.91;5024577;28;45368;-74
2023/01/09 09:16:48;;;;;;;;;1.67;0.00;;;;;9.97;100.00;99906.84;5023624;28;45491;-72
2023/01/09 09:19:14;;;;;;;;;0.00;0.00;;;;;9.97;100.00;99916.94;5032113;28;45511;-72
2023/01/09 09:21:39;;;;;;;;;0.00;0.00;;;;;9.95;100.00;99925.38;5059286;28;45369;-73
2023/01/09 09:24:05;;;;;;;;;0.00;0.00;;;;;9.96;100.00;99934.44;5030271;28;45547;-72
2023/01/09 09:26:31;;;;;;;;;0.00;0.00;;;;;9.90;100.00;99923.31;5031837;28;46020;-72
2023/01/09 09:28:57;;;;;;;;;0.00;0.00;;;;;9.90;100.00;99928.78;5027973;28;45511;-73
2023/01/09 09:31:23;;;;;;;;;0.00;0.00;;;;;9.86;100.00;99934.94;5026043;28;45357;-73
2023/01/09 09:33:48;;;;;;;;;0.33;0.00;;;;;9.87;100.00;99939.38;5028602;28;45718;-72
2023/01/09 09:36:14;;;;;;;;;0.00;0.00;;;;;9.90;100.00;99944.41;5032028;28;45732;-74
2023/01/09 09:38:39;;;;;;;;;2.00;0.67;;;;;9.93;100.00;99943.94;5031989;28;45712;-82
2023/01/09 09:47:37;;;;;;;;;0.67;0.00;;;;;11.56;100.00;99957.19;5023865;28;46384;-75
2023/01/09 09:50:13;;;;;;;;;0.00;0.00;;;;;12.30;100.00;99959.56;5033262;28;45357;-82
2023/01/09 09:53:09;;;;;;;;;1.00;0.00;;;;;12.50;100.00;99961.94;5024797;28;46539;-81
2023/01/09 09:55:38;;;;;;;;;0.67;0.00;;;;;12.33;100.00;99969.25;5027795;28;45536;-74
2023/01/09 09:58:14;;;;;;;;;1.00;0.00;;;;;12.15;100.00;99981.19;5020695;28;46440;-73
2023/01/09 10:00:40;;;;;;;;;0.33;0.33;;;;;12.01;100.00;99980.59;5026235;28;45802;-79
2023/01/09 10:03:15;;;;;;;;;1.00;0.00;;;;;11.92;100.00;99985.56;5025089;28;45512;-77
2023/01/09 10:05:44;;;;;;;;;0.00;0.00;;;;;11.98;100.00;99997.56;5032908;28;45765;-82
2023/01/09 10:08:38;;;;;;;;;0.67;0.00;;;;;12.06;100.00;100005.44;5033594;28;46392;-81
2023/01/09 10:11:14;;;;;;;;;0.00;0.00;;;;;12.01;100.00;99995.16;5053069;28;45688;-74
2023/01/09 10:16:41;;;;;;;;;0.00;0.00;;;;;11.76;100.00;100017.31;5022142;28;45616;-73
2023/01/09 10:19:18;;;;;;;;;0.00;0.00;;;;;11.79;100.00;100029.72;5031945;28;45903;-74
2023/01/09 10:21:57;;;;;;;;;1.33;0.00;;;;;11.63;100.00;100029.34;5030452;28;45370;-74
2023/01/09 10:24:47;;;;;;;;;0.00;0.00;;;;;11.36;100.00;100031.63;5030418;28;45638;-74
2023/01/09 10:27:26;;;;;;;;;0.00;0.00;;;;;11.20;100.00;100040.50;5028842;28;45361;-72
2023/01/09 10:30:03;;;;;;;;;3.00;0.00;;;;;11.01;100.00;100051.47;5051924;28;47286;-72
2023/01/09 10:32:51;;;;;;;;;0.67;0.00;;;;;10.94;100.00;100047.94;5032183;28;45415;-78
2023/01/09 10:35:35;;;;;;;;;0.33;0.33;;;;;10.90;100.00;100052.25;5032102;28;45740;-77
2023/01/09 10:38:05;;;;;;;;;2.00;0.00;;;;;10.72;100.00;100042.09;5031775;28;45310;-78
2023/01/09 10:40:53;;;;;;;;;1.67;0.33;;;;;10.72;100.00;100064.88;5015653;28;45745;-82
2023/01/09 10:43:43;;;;;;;;;0.00;0.00;;;;;10.73;100.00;100060.22;5021526;28;45410;-79
2023/01/09 10:46:24;;;;;;;;;1.67;0.00;;;;;10.61;100.00;100057.38;5019598;28;45329;-79
2023/01/09 10:48:57;;;;;;;;;1.00;0.00;;;;;10.72;100.00;100075.00;5060260;28;46440;-79
2023/01/09 10:51:31;;;;;;;;;0.33;0.00;;;;;10.74;100.00;100064.63;5027553;28;46249;-78
2023/01/09 10:53:56;;;;;;;;;2.00;0.00;;;;;10.70;100.00;100080.72;5026618;28;45838;-77
2023/01/09 10:56:25;;;;;;;;;0.00;0.00;;;;;10.70;100.00;100072.50;5028615;28;45840;-79
2023/01/09 10:58:53;;;;;;;;;0.00;0.00;;;;;10.75;100.00;100067.16;5030238;28;45986;-77
2023/01/09 11:01:33;;;;;;;;;0.33;0.33;;;;;10.77;100.00;100075.97;5064466;27;47611;-77
2023/01/09 11:04:00;;;;;;;;;1.00;1.00;;;;;10.82;100.00;100074.47;5031546;28;45491;-79
2023/01/09 11:06:46;;;;;;;;;1.33;0.67;;;;;10.82;100.00;100072.56;5032727;28;45374;-76
2023/01/09 11:09:13;;;;;;;;;1.00;0.00;;;;;10.82;100.00;100078.03;5034355;28;45708;-80
2023/01/09 11:11:40;;;;;;;;;0.00;0.00;;;;;10.93;100.00;100077.31;5034398;28;45676;-78
2023/01/09 11:14:26;;;;;;;;;1.67;0.00;;;;;11.05;100.00;100076.56;5031045;28;46121;-82
2023/01/09 11:17:02;;;;;;;;;1.00;0.00;;;;;11.12;100.00;100074.56;5029450;28;45667;-80
2023/01/09 11:19:30;;;;;;;;;0.00;0.00;;;;;11.22;100.00;100069.38;5032422;28;45996;-77
2023/01/09 11:22:16;;;;;;;;;0.33;0.00;;;;;11.37;100.00;100077.22;5020406;28;45565;-79
2023/01/09 11:24:42;;;;;;;;;0.33;0.00;;;;;11.41;100.00;100080.34;5022371;28;46007;-81
2023/01/09 11:27:22;;;;;;;;;0.00;0.00;;;;;11.53;100.00;100075.75;5029778;28;44706;-79
2023/01/09 11:30:08;;;;;;;;;0.00;0.00;;;;;11.58;100.00;100077.78;5035236;28;45437;-79
2023/01/09 11:32:34;;;;;;;;;1.67;0.00;;;;;11.55;100.00;100067.28;5017495;28;45947;-79
2023/01/09 11:35:03;;;;;;;;;0.00;0.00;;;;;11.66;100.00;100069.22;5028118;28;45658;-80
2023/01/09 11:37:30;;;;;;;;;1.33;0.33;;;;;11.71;100.00;100058.38;5026493;28;45935;-81
2023/01/09 11:39:58;;;;;;;;;1.67;0.00;;;;;11.81;100.00;100063.28;5039627;28;45551;-78
2023/01/09 11:45:27;;;;;;;;;3.00;0.00;;;;;12.00;100.00;100062.19;5033631;28;45376;-86
2023/01/09 11:47:52;;;;;;;;;1.67;0.00;;;;;12.11;100.00;100070.69;5031474;28;44860;-85
2023/01/09 11:50:23;;;;;;;;;0.00;0.00;;;;;12.06;100.00;100076.91;5027120;28;45729;-81
2023/01/09 11:53:19;;;;;;;;;3.00;0.33;;;;;11.97;100.00;100064.56;5026125;28;48061;-82
2023/01/09 11:55:58;;;;;;;;;4.00;3.00;;;;;11.95;100.00;100083.22;5026509;28;45842;-76
2023/01/09 11:58:23;;;;;;;;;0.00;0.00;;;;;12.02;100.00;100081.22;5029654;28;45705;-77
2023/01/09 12:01:23;;;;;;;;;0.00;0.00;;;;;11.80;100.00;100083.63;5058119;28;45743;-83